Terminal Aerodrome Forecast
Issued by NWS Goodland, KS

Home | Current Version | Previous Version | Text Only | Print | Product List | Glossary On
Versions: 1 2 3 4 5 6 7 8 9 10 11 12 13 14 15
000
FTUS43 KGLD 222336
TAFGLD
TAF
KGLD 222336Z 2300/2324 09007KT P6SM SCT250
     FM230600 11015KT P6SM SCT200
     FM231500 14015G23KT P6SM SCT130
     FM231700 18017G25KT P6SM SCT200
     FM231900 21019G27KT P6SM SCT200
     FM232200 26020G28KT P6SM SCT140
     FM232300 30017G25KT P6SM BKN100=

USA.gov is the U.S. government's official web portal to all federal, state and local government web resources and services.